Santa Rosa Beach, Florida
Current Conditions -  °F | °C
As of 6:53 PM on Friday 19 Dec 2014 (Local Time) from KDTS Reporting Station
Overcast Overcast  
Wind Chill: 52°   Ceiling: 8000
Heat Index: 52°   Visibility: 10mi
Dew Point: 49°   Wind: 5mph
Humidity: 89%   Direction: 90°E
Pressure: 30.13"   Gusts: NA
Location:  30.4°N, 86.23°W
Report Text: KDTS 200053Z AUTO 09004KT 10SM FEW031 BKN080 OVC095 11/09 A3013 RMK AO2 RAE51 SLP202 P0001 T01110094 TSNO
Loading
Personal Weather Stations






























Interactive Weather Map New forecast layout! Learn more

10-Day Weather Forecast

Advertisements
Track Severe Weather on mobile